createdAt,value
2019-04-10T00:00:44.096Z,16.93
2019-04-10T00:03:27.812Z,16.63
2019-04-10T00:05:53.925Z,16.15
2019-04-10T00:08:28.476Z,14.95
2019-04-10T00:11:02.649Z,14.67
2019-04-10T00:13:36.463Z,13.20
2019-04-10T00:16:11.845Z,12.17
2019-04-10T00:18:46.299Z,15.43
2019-04-10T00:21:20.897Z,14.67
2019-04-10T00:24:03.805Z,13.67
2019-04-10T00:26:37.550Z,15.68
2019-04-10T00:29:12.031Z,14.90
2019-04-10T00:31:46.554Z,15.03
2019-04-10T00:34:21.177Z,14.93
2019-04-10T00:36:54.805Z,17.50
2019-04-10T00:39:28.722Z,13.90
2019-04-10T00:42:03.022Z,15.73
2019-04-10T00:44:37.600Z,14.87
2019-04-10T00:50:04.258Z,17.00
2019-04-10T00:52:38.615Z,14.53
2019-04-10T00:55:13.242Z,16.13
2019-04-10T00:57:58.094Z,13.17
2019-04-10T01:00:32.827Z,16.20
2019-04-10T01:03:15.563Z,17.30
2019-04-10T01:05:49.248Z,17.77
2019-04-10T01:08:22.714Z,17.83
2019-04-10T01:10:56.853Z,17.03
2019-04-10T01:13:30.225Z,17.57
2019-04-10T01:16:04.632Z,16.60
2019-04-10T01:18:38.080Z,15.90
2019-04-10T01:21:12.467Z,17.80
2019-04-10T01:23:46.790Z,18.27
2019-04-10T01:26:21.154Z,18.37
2019-04-10T01:28:55.576Z,20.00
2019-04-10T01:31:32.559Z,17.93
2019-04-10T01:34:07.423Z,19.03
2019-04-10T01:36:41.125Z,17.73
2019-04-10T01:39:19.173Z,18.37
2019-04-10T01:42:04.581Z,17.37
2019-04-10T01:44:40.570Z,19.43
2019-04-10T01:47:15.195Z,19.87
2019-04-10T01:49:48.657Z,17.97
2019-04-10T01:52:22.731Z,14.27
2019-04-10T01:54:56.298Z,17.07
2019-04-10T01:57:30.469Z,16.17
2019-04-10T02:00:06.671Z,14.07
2019-04-10T02:02:41.774Z,16.00
2019-04-10T02:05:16.520Z,15.77
2019-04-10T02:08:02.137Z,14.70
2019-04-10T02:10:26.388Z,15.10
2019-04-10T02:12:59.850Z,15.87
2019-04-10T02:15:34.275Z,14.33
2019-04-10T02:18:08.645Z,14.57
2019-04-10T02:20:43.143Z,13.33
2019-04-10T02:23:16.766Z,13.87
2019-04-10T02:25:50.354Z,13.30
2019-04-10T02:28:29.192Z,13.23
2019-04-10T02:31:03.446Z,13.17
2019-04-10T02:33:38.786Z,12.10
2019-04-10T02:36:12.975Z,11.07
2019-04-10T02:38:59.275Z,12.13
2019-04-10T02:41:25.542Z,11.03
2019-04-10T02:46:54.867Z,10.80
2019-04-10T02:49:28.123Z,9.83
2019-04-10T02:52:04.135Z,9.93
2019-04-10T02:54:37.612Z,11.13
2019-04-10T02:57:11.350Z,9.17
2019-04-10T02:59:45.330Z,10.13
2019-04-10T03:02:26.597Z,9.50
2019-04-10T03:05:01.350Z,10.13
2019-04-10T03:08:00.302Z,9.60
2019-04-10T03:10:30.018Z,9.10
2019-04-10T03:12:58.731Z,9.30
2019-04-10T03:15:33.945Z,8.83
2019-04-10T03:18:08.349Z,9.80
2019-04-10T03:20:45.001Z,8.10
2019-04-10T03:23:18.583Z,8.93
2019-04-10T03:25:52.953Z,9.00
2019-04-10T03:28:27.068Z,9.40
2019-04-10T03:31:02.825Z,9.23
2019-04-10T03:34:00.527Z,9.17
2019-04-10T03:36:38.056Z,10.07
2019-04-10T03:42:04.404Z,9.47
2019-04-10T03:44:45.288Z,9.13
2019-04-10T03:47:19.608Z,8.83
2019-04-10T03:49:53.999Z,10.17
2019-04-10T03:52:33.689Z,10.33
2019-04-10T03:55:08.419Z,10.53
2019-04-10T03:57:42.831Z,9.73
2019-04-10T04:00:16.540Z,9.53
2019-04-10T04:05:37.101Z,9.90
2019-04-10T04:08:10.969Z,10.93
2019-04-10T04:10:45.804Z,9.47
2019-04-10T04:13:19.569Z,9.97
2019-04-10T04:15:54.986Z,8.77
2019-04-10T04:18:30.038Z,8.83
2019-04-10T04:21:03.513Z,9.07
2019-04-10T04:23:38.170Z,8.73
2019-04-10T04:26:12.670Z,8.40
2019-04-10T04:28:46.303Z,8.30
2019-04-10T04:31:21.319Z,8.30
2019-04-10T04:33:55.588Z,8.00
2019-04-10T04:36:30.804Z,7.93
2019-04-10T04:39:17.967Z,7.80
2019-04-10T04:41:42.714Z,9.23
2019-04-10T04:44:16.244Z,8.97
2019-04-10T04:46:54.024Z,9.27
2019-04-10T04:49:28.397Z,9.50
2019-04-10T04:52:02.599Z,8.10
2019-04-10T04:54:37.224Z,8.03
2019-04-10T04:57:13.434Z,8.60
2019-04-10T04:59:46.847Z,8.33
2019-04-10T05:02:32.982Z,9.57
2019-04-10T05:05:39.122Z,7.47
2019-04-10T05:08:22.433Z,8.10
2019-04-10T05:10:54.398Z,8.33
2019-04-10T05:13:28.925Z,9.10
2019-04-10T05:16:02.693Z,8.93
2019-04-10T05:18:37.196Z,12.43
2019-04-10T05:21:10.908Z,11.77
2019-04-10T05:23:49.798Z,9.53
2019-04-10T05:26:23.315Z,10.83
2019-04-10T05:28:57.120Z,11.43
2019-04-10T05:31:30.610Z,9.93
2019-04-10T05:34:05.053Z,10.97
2019-04-10T05:36:39.685Z,12.17
2019-04-10T05:39:15.528Z,12.53
2019-04-10T05:41:50.377Z,12.17
2019-04-10T05:44:27.648Z,10.87
2019-04-10T05:47:01.440Z,12.43
2019-04-10T05:49:35.176Z,9.47
2019-04-10T05:52:08.784Z,9.37
2019-04-10T05:54:42.235Z,11.53
2019-04-10T05:57:16.006Z,10.17
2019-04-10T05:59:49.446Z,10.50
2019-04-10T06:02:27.718Z,10.60
2019-04-10T06:05:02.342Z,9.73
2019-04-10T06:07:37.113Z,8.20
2019-04-10T06:10:10.937Z,13.17
2019-04-10T06:12:44.763Z,10.20
2019-04-10T06:15:19.100Z,9.27
2019-04-10T06:17:54.534Z,9.00
2019-04-10T06:20:29.175Z,8.37
2019-04-10T06:23:03.250Z,9.70
2019-04-10T06:25:39.325Z,11.63
2019-04-10T06:28:12.916Z,10.40
2019-04-10T06:30:46.483Z,8.77
2019-04-10T06:33:20.157Z,8.97
2019-04-10T06:35:53.681Z,10.17
2019-04-10T06:38:27.253Z,8.60
2019-04-10T06:41:02.064Z,8.77
2019-04-10T06:43:37.187Z,9.23
2019-04-10T06:46:12.526Z,16.37
2019-04-10T06:48:46.094Z,10.67
2019-04-10T06:51:21.245Z,13.00
2019-04-10T06:54:03.599Z,13.73
2019-04-10T06:56:31.348Z,20.00
2019-04-10T06:59:04.949Z,11.77
2019-04-10T07:01:44.044Z,9.63
2019-04-10T07:04:15.490Z,9.30
2019-04-10T07:06:58.047Z,10.97
2019-04-10T07:09:26.457Z,8.40
2019-04-10T07:12:04.621Z,10.13
2019-04-10T07:14:38.641Z,10.80
2019-04-10T07:17:14.415Z,10.27
2019-04-10T07:19:48.033Z,9.73
2019-04-10T07:22:21.504Z,9.73
2019-04-10T07:24:56.358Z,9.73
2019-04-10T07:27:32.768Z,9.80
2019-04-10T07:30:10.182Z,8.63
2019-04-10T07:32:47.488Z,9.30
2019-04-10T07:35:20.276Z,9.43
2019-04-10T07:37:56.593Z,9.30
2019-04-10T07:40:33.085Z,8.83
2019-04-10T07:43:04.666Z,8.47
2019-04-10T07:45:38.224Z,9.88
2019-04-10T07:48:12.891Z,9.55
2019-04-10T07:50:47.531Z,10.93
2019-04-10T07:53:22.565Z,13.40
2019-04-10T07:56:04.052Z,13.60
2019-04-10T07:58:31.348Z,13.55
2019-04-10T08:01:05.543Z,9.55
2019-04-10T08:03:39.596Z,8.70
2019-04-10T08:06:13.250Z,10.30
2019-04-10T08:08:46.903Z,11.20
2019-04-10T08:11:20.494Z,10.25
2019-04-10T08:13:54.916Z,10.90
2019-04-10T08:16:29.232Z,9.98
2019-04-10T08:19:04.026Z,12.23
2019-04-10T08:21:38.075Z,8.45
2019-04-10T08:24:11.696Z,9.70
2019-04-10T08:26:45.235Z,10.00
2019-04-10T08:29:18.756Z,10.65
2019-04-10T08:31:52.731Z,8.93
2019-04-10T08:34:28.084Z,10.80
2019-04-10T08:37:01.816Z,9.25
2019-04-10T08:39:42.558Z,9.33
2019-04-10T08:42:12.650Z,10.15
2019-04-10T08:44:46.627Z,9.90
2019-04-10T08:47:20.277Z,9.63
2019-04-10T08:49:54.914Z,9.63
2019-04-10T08:52:30.445Z,9.60
2019-04-10T08:55:13.435Z,7.95
2019-04-10T08:57:41.735Z,8.30
2019-04-10T09:00:18.727Z,10.20
2019-04-10T09:02:52.963Z,9.25
2019-04-10T09:05:26.433Z,9.03
2019-04-10T09:08:08.557Z,10.40
2019-04-10T09:10:42.780Z,8.58
2019-04-10T09:13:17.295Z,10.85
2019-04-10T09:15:51.005Z,9.08
2019-04-10T09:18:25.219Z,9.73
2019-04-10T09:20:59.401Z,7.35
2019-04-10T09:23:39.795Z,9.45
2019-04-10T09:26:08.255Z,9.95
2019-04-10T09:28:42.423Z,8.35
2019-04-10T09:31:17.686Z,10.03
2019-04-10T09:33:51.543Z,9.90
2019-04-10T09:36:26.987Z,9.08
2019-04-10T09:39:01.223Z,8.50
2019-04-10T09:41:36.392Z,9.80
2019-04-10T09:44:10.330Z,9.60
2019-04-10T09:46:45.042Z,10.48
2019-04-10T09:49:30.400Z,8.68
2019-04-10T09:51:54.918Z,11.22
2019-04-10T09:54:28.570Z,21.97
2019-04-10T09:57:03.326Z,14.68
2019-04-10T09:59:39.810Z,11.15
2019-04-10T10:02:13.306Z,10.38
2019-04-10T10:04:50.291Z,11.43
2019-04-10T10:07:24.196Z,9.18
2019-04-10T10:09:59.649Z,10.35
2019-04-10T10:12:32.795Z,9.90
2019-04-10T10:15:09.499Z,9.60
2019-04-10T10:17:43.155Z,9.43
2019-04-10T10:20:17.249Z,9.50
2019-04-10T10:22:51.778Z,10.78
2019-04-10T10:25:25.319Z,10.13
2019-04-10T10:27:58.914Z,9.43
2019-04-10T10:30:33.601Z,11.60
2019-04-10T10:33:07.857Z,10.72
2019-04-10T10:35:41.481Z,12.30
2019-04-10T10:38:14.891Z,10.55
2019-04-10T10:40:48.763Z,11.03
2019-04-10T10:43:26.608Z,11.43
2019-04-10T10:46:00.933Z,10.35
2019-04-10T10:48:34.488Z,12.15
2019-04-10T10:51:08.785Z,11.28
2019-04-10T10:53:44.088Z,10.05
2019-04-10T10:56:18.711Z,11.30
2019-04-10T10:58:53.138Z,10.70
2019-04-10T11:01:27.556Z,11.38
2019-04-10T11:04:01.144Z,9.80
2019-04-10T11:06:35.068Z,9.90
2019-04-10T11:09:13.138Z,9.98
2019-04-10T11:11:47.158Z,10.53
2019-04-10T11:14:23.566Z,10.63
2019-04-10T11:16:58.726Z,10.65
2019-04-10T11:19:32.385Z,10.23
2019-04-10T11:22:07.734Z,11.38
2019-04-10T11:24:42.765Z,10.60
2019-04-10T11:27:16.423Z,12.18
2019-04-10T11:29:51.042Z,11.53
2019-04-10T11:32:26.582Z,11.18
2019-04-10T11:35:00.318Z,11.53
2019-04-10T11:37:41.681Z,13.18
2019-04-10T11:40:12.178Z,12.37
2019-04-10T11:42:46.801Z,11.85
2019-04-10T11:45:23.011Z,11.68
2019-04-10T11:47:56.617Z,11.28
2019-04-10T11:50:31.751Z,12.35
2019-04-10T11:53:06.820Z,11.20
2019-04-10T11:55:46.716Z,12.03
2019-04-10T11:58:17.802Z,9.68
2019-04-10T12:00:52.633Z,11.63
2019-04-10T12:03:27.066Z,13.50
2019-04-10T12:06:04.254Z,12.70
2019-04-10T12:11:15.536Z,12.07
2019-04-10T12:13:48.297Z,12.85
2019-04-10T12:16:23.085Z,12.68
2019-04-10T12:18:57.329Z,11.55
2019-04-10T12:21:31.604Z,11.40
2019-04-10T12:24:05.407Z,11.65
2019-04-10T12:26:40.133Z,10.78
2019-04-10T12:29:14.163Z,12.47
2019-04-10T12:31:48.228Z,11.65
2019-04-10T12:34:22.411Z,10.78
2019-04-10T12:36:56.068Z,12.85
2019-04-10T12:39:30.108Z,11.28
2019-04-10T12:42:03.865Z,11.80
2019-04-10T12:44:38.677Z,12.13
2019-04-10T12:47:13.479Z,12.43
2019-04-10T12:49:48.254Z,11.97
2019-04-10T12:52:22.727Z,13.72
2019-04-10T12:54:59.593Z,12.90
2019-04-10T12:57:33.259Z,13.68
2019-04-10T13:00:12.236Z,12.37
2019-04-10T13:02:46.900Z,14.10
2019-04-10T13:05:20.952Z,13.58
2019-04-10T13:07:54.507Z,14.80
2019-04-10T13:10:28.094Z,12.28
2019-04-10T13:13:02.022Z,12.65
2019-04-10T13:15:39.400Z,13.83
2019-04-10T13:18:14.246Z,15.03
2019-04-10T13:20:48.373Z,17.62
2019-04-10T13:23:22.517Z,17.77
2019-04-10T13:26:00.986Z,15.23
2019-04-10T13:28:32.085Z,12.63
2019-04-10T13:31:05.976Z,13.88
2019-04-10T13:33:40.626Z,13.88
2019-04-10T13:36:15.407Z,13.72
2019-04-10T13:38:49.185Z,12.23
2019-04-10T13:41:24.085Z,14.53
2019-04-10T13:43:58.167Z,15.32
2019-04-10T13:46:33.952Z,14.85
2019-04-10T13:49:11.688Z,14.98
2019-04-10T13:51:45.650Z,15.98
2019-04-10T13:54:19.398Z,15.00
2019-04-10T13:56:55.209Z,14.43
2019-04-10T13:59:29.006Z,23.98
2019-04-10T14:02:02.718Z,22.25
2019-04-10T14:04:36.214Z,15.95
2019-04-10T14:07:26.575Z,25.27
2019-04-10T14:09:52.328Z,23.38
2019-04-10T14:12:27.092Z,23.30
2019-04-10T14:15:01.571Z,23.47
2019-04-10T14:17:50.022Z,21.80
2019-04-10T14:23:49.473Z,28.27
2019-04-10T14:26:39.143Z,67.37
2019-04-10T14:29:07.154Z,43.13
2019-04-10T14:31:44.938Z,44.50
2019-04-10T14:34:19.663Z,23.07
2019-04-10T14:36:59.564Z,67.25
2019-04-10T14:39:33.573Z,39.33
2019-04-10T14:42:08.653Z,53.28
2019-04-10T14:44:46.397Z,26.97
2019-04-10T14:47:20.598Z,41.45
2019-04-10T14:49:56.494Z,25.45
2019-04-10T14:52:30.613Z,37.67
2019-04-10T14:55:04.443Z,13.22
2019-04-10T14:57:39.028Z,14.68
2019-04-10T15:00:14.846Z,41.42
2019-04-10T15:02:50.929Z,14.10
2019-04-10T15:05:26.200Z,20.90
2019-04-10T15:07:59.687Z,19.95
2019-04-10T15:10:33.251Z,21.33
2019-04-10T15:13:13.142Z,19.45
2019-04-10T15:15:45.342Z,22.50
2019-04-10T15:18:20.491Z,25.15
2019-04-10T15:20:58.590Z,66.85
2019-04-10T15:23:31.521Z,24.20
2019-04-10T15:26:08.030Z,31.37
2019-04-10T15:28:41.370Z,50.60
2019-04-10T15:31:15.169Z,37.70
2019-04-10T15:33:51.910Z,23.25
2019-04-10T15:36:26.920Z,19.17
2019-04-10T15:39:00.486Z,16.85
2019-04-10T15:41:35.672Z,21.97
2019-04-10T15:44:11.933Z,23.98
2019-04-10T15:46:45.716Z,21.50
2019-04-10T15:49:19.478Z,22.30
2019-04-10T15:51:53.832Z,23.02
2019-04-10T15:54:27.328Z,13.98
2019-04-10T15:57:00.844Z,17.57
2019-04-10T15:59:38.648Z,19.48
2019-04-10T16:02:13.251Z,54.98
2019-04-10T16:04:48.893Z,51.18
2019-04-10T16:07:24.450Z,29.02
2019-04-10T16:10:08.593Z,41.48
2019-04-10T16:12:43.511Z,29.55
2019-04-10T16:15:17.396Z,22.55
2019-04-10T16:17:58.893Z,47.95
2019-04-10T16:20:34.244Z,19.05
2019-04-10T16:23:08.042Z,13.20
2019-04-10T16:25:43.432Z,122.58
2019-04-10T16:28:18.177Z,779.98
2019-04-10T16:30:51.865Z,325.10
2019-04-10T16:33:25.531Z,665.45
2019-04-10T16:35:59.490Z,478.80
2019-04-10T16:38:33.256Z,536.83
2019-04-10T16:41:08.116Z,490.77
2019-04-10T16:43:41.810Z,278.45
2019-04-10T16:46:15.530Z,30.15
2019-04-10T16:48:49.107Z,43.68
2019-04-10T16:51:23.886Z,32.93
2019-04-10T16:53:58.045Z,37.15
2019-04-10T16:56:31.839Z,19.25
2019-04-10T16:59:06.593Z,15.68
2019-04-10T17:01:40.272Z,13.72
2019-04-10T17:04:14.708Z,14.15
2019-04-10T17:06:48.430Z,24.07
2019-04-10T17:09:22.843Z,19.75
2019-04-10T17:11:58.591Z,16.37
2019-04-10T17:14:32.293Z,16.55
2019-04-10T17:17:08.261Z,17.25
2019-04-10T17:19:48.773Z,18.32
2019-04-10T17:22:31.098Z,18.10
2019-04-10T17:24:53.886Z,14.83
2019-04-10T17:27:27.721Z,18.57
2019-04-10T17:30:01.430Z,17.00
2019-04-10T17:32:36.516Z,19.67
2019-04-10T17:35:11.626Z,34.00
2019-04-10T17:37:45.689Z,26.70
2019-04-10T17:40:29.994Z,24.43
2019-04-10T17:42:54.932Z,19.23
2019-04-10T17:45:29.212Z,30.52
2019-04-10T17:48:05.137Z,27.87
2019-04-10T17:50:39.949Z,35.70
2019-04-10T17:53:14.861Z,26.87
2019-04-10T17:55:49.690Z,31.37
2019-04-10T17:58:23.271Z,39.75
2019-04-10T18:00:59.651Z,84.50
2019-04-10T18:03:44.848Z,94.95
2019-04-10T18:06:09.004Z,175.82
2019-04-10T18:08:43.151Z,68.62
2019-04-10T18:11:16.817Z,28.92
2019-04-10T18:13:51.081Z,38.53
2019-04-10T18:16:25.625Z,97.97
2019-04-10T18:19:00.095Z,78.30
2019-04-10T18:21:34.970Z,49.40
2019-04-10T18:24:08.545Z,101.00
2019-04-10T18:26:42.149Z,48.65
2019-04-10T18:29:15.698Z,31.62
2019-04-10T18:31:49.387Z,147.80
2019-04-10T18:34:24.920Z,124.07
2019-04-10T18:36:58.646Z,80.62
2019-04-10T18:39:32.586Z,137.88
2019-04-10T18:42:06.280Z,34.63
2019-04-10T18:44:41.558Z,86.78
2019-04-10T18:47:16.531Z,92.20
2019-04-10T18:49:51.756Z,60.58
2019-04-10T18:52:25.491Z,60.20
2019-04-10T18:55:16.294Z,39.90
2019-04-10T18:57:51.938Z,33.55
2019-04-10T19:00:43.364Z,20.72
2019-04-10T19:03:25.610Z,21.23
2019-04-10T19:05:58.914Z,19.48
2019-04-10T19:08:33.685Z,23.02
2019-04-10T19:11:17.547Z,21.20
2019-04-10T19:13:42.532Z,17.98
2019-04-10T19:16:17.357Z,21.15
2019-04-10T19:18:52.283Z,25.37
2019-04-10T19:21:27.252Z,28.87
2019-04-10T19:24:01.583Z,25.55
2019-04-10T19:26:53.777Z,27.10
2019-04-10T19:29:27.679Z,29.20
2019-04-10T19:32:03.397Z,50.48
2019-04-10T19:34:37.566Z,279.27
2019-04-10T19:37:10.953Z,106.37
2019-04-10T19:39:44.695Z,158.55
2019-04-10T19:42:19.458Z,35.48
2019-04-10T19:44:55.611Z,30.07
2019-04-10T19:47:30.409Z,114.97
2019-04-10T19:50:04.108Z,25.25
2019-04-10T19:52:38.376Z,27.15
2019-04-10T19:55:12.142Z,41.37
2019-04-10T19:57:45.749Z,27.40
2019-04-10T20:00:22.150Z,25.08
2019-04-10T20:02:55.844Z,28.92
2019-04-10T20:05:29.609Z,25.72
2019-04-10T20:08:03.085Z,41.70
2019-04-10T20:10:37.697Z,48.38
2019-04-10T20:13:11.306Z,29.70
2019-04-10T20:15:44.845Z,49.75
2019-04-10T20:18:18.879Z,284.32
2019-04-10T20:20:55.367Z,92.20
2019-04-10T20:23:29.876Z,81.37
2019-04-10T20:26:21.068Z,57.30
2019-04-10T20:28:54.703Z,38.45
2019-04-10T20:31:31.222Z,62.27
2019-04-10T20:34:05.847Z,22.55
2019-04-10T20:36:40.144Z,20.48
2019-04-10T20:39:14.900Z,23.70
2019-04-10T20:41:54.692Z,20.92
2019-04-10T20:44:24.892Z,33.83
2019-04-10T20:46:58.546Z,20.97
2019-04-10T20:49:34.192Z,27.17
2019-04-10T20:52:08.351Z,25.85
2019-04-10T20:54:42.085Z,17.85
2019-04-10T20:57:16.146Z,26.93
2019-04-10T20:59:49.559Z,29.02
2019-04-10T21:02:23.044Z,15.80
2019-04-10T21:05:04.964Z,17.75
2019-04-10T21:07:31.954Z,20.60
2019-04-10T21:10:06.989Z,21.70
2019-04-10T21:12:41.621Z,19.05
2019-04-10T21:15:15.333Z,19.37
2019-04-10T21:17:48.912Z,19.23
2019-04-10T21:20:22.572Z,16.85
2019-04-10T21:22:56.176Z,14.18
2019-04-10T21:25:30.825Z,47.55
2019-04-10T21:28:05.572Z,115.63
2019-04-10T21:30:46.602Z,39.33
2019-04-10T21:33:22.630Z,22.73
2019-04-10T21:35:56.208Z,20.00
2019-04-10T21:38:30.199Z,27.00
2019-04-10T21:41:05.695Z,17.35
2019-04-10T21:43:39.001Z,28.30
2019-04-10T21:46:12.463Z,23.95
2019-04-10T21:48:46.817Z,19.35
2019-04-10T21:51:20.314Z,16.60
2019-04-10T21:53:55.906Z,26.20
2019-04-10T21:56:29.344Z,18.15
2019-04-10T21:59:03.205Z,19.17
2019-04-10T22:01:38.157Z,17.90
2019-04-10T22:04:11.639Z,16.90
2019-04-10T22:06:55.815Z,18.50
2019-04-10T22:09:39.770Z,17.30
2019-04-10T22:12:26.903Z,14.68
2019-04-10T22:14:52.667Z,18.10
2019-04-10T22:17:26.795Z,17.10
2019-04-10T22:20:01.303Z,18.07
2019-04-10T22:22:37.109Z,20.00
2019-04-10T22:25:11.011Z,16.67
2019-04-10T22:27:44.886Z,17.33
2019-04-10T22:30:18.986Z,18.17
2019-04-10T22:32:53.442Z,19.07
2019-04-10T22:35:28.046Z,17.43
2019-04-10T22:38:02.608Z,20.53
2019-04-10T22:40:37.880Z,17.87
2019-04-10T22:43:11.672Z,18.13
2019-04-10T22:45:45.217Z,14.90
2019-04-10T22:48:18.886Z,17.83
2019-04-10T22:50:53.566Z,18.40
2019-04-10T22:53:27.444Z,20.33
2019-04-10T22:56:00.928Z,19.00
2019-04-10T22:58:35.117Z,18.00
2019-04-10T23:01:10.935Z,19.67
2019-04-10T23:03:45.331Z,17.67
2019-04-10T23:06:18.748Z,15.73
2019-04-10T23:08:52.210Z,13.63
2019-04-10T23:11:31.746Z,16.87
2019-04-10T23:14:00.756Z,17.53
2019-04-10T23:16:34.391Z,15.30
2019-04-10T23:19:07.859Z,15.80
2019-04-10T23:21:41.205Z,16.17
2019-04-10T23:24:15.699Z,15.67
2019-04-10T23:26:49.359Z,16.43
2019-04-10T23:29:22.774Z,17.37
2019-04-10T23:31:56.246Z,18.67
2019-04-10T23:34:30.523Z,19.43
2019-04-10T23:37:04.733Z,19.30
2019-04-10T23:39:38.531Z,17.33
2019-04-10T23:42:12.819Z,18.63
2019-04-10T23:44:46.523Z,17.60
2019-04-10T23:47:20.138Z,25.10
2019-04-10T23:49:54.073Z,21.00
2019-04-10T23:52:27.647Z,21.43
2019-04-10T23:55:01.792Z,23.97
2019-04-10T23:57:35.688Z,22.33
